Nearby METAR Reports

YMHB - Hobart/Tasmania, Australia
Distance from Franklin: NE 55km
Updated: 16/10/2018 03:30
Mostly cloudy
Mostly cloudy
 Wind from NNE
Wind: NNE 11 km/h
Temperature: 16°C
Dew Point: 12°C
Humidity: 77%
Barometer: 1017 hPa
Clouds: Mostly cloudy
Visibility: 10 km
Cloud details: Few Clouds 610 m
Mostly cloudy 4572 m
2018/10/15 16:30 YMHB 151630Z 03006KT 9999 FEW020 BKN150 16/12 Q1017 RF00.0/000.0
YMLT - Launceston Airpo, Australia
Distance from Franklin: N 179km
Updated: 16/10/2018 03:30
Clear
Clear
 Wind from S
Wind: S 13 km/h
Temperature: 13°C
Dew Point: 10°C
Humidity: 82%
Barometer: 1017 hPa
Clouds: Clear
Visibility: 10 km
2018/10/15 16:30 YMLT 151630Z AUTO 19007KT 9999 // NCD 13/10 Q1017 RF00.0/000.0
 
YMAV - Avalon Airport, Australia
Distance from Franklin: NNW 601km
Updated: 16/10/2018 03:53
Mostly cloudy
Mostly cloudy
 Wind from NNE
Wind: NNE 28 km/h
Temperature: 23°C
Dew Point: 11°C
Humidity: 47%
Barometer: 1012 hPa
Clouds: Mostly cloudy
Visibility: 10 km
Cloud details: Mostly cloudy 3658 m
2018/10/15 16:53 YMAV 151653Z AUTO 03015KT 9999 // BKN120 23/11 Q1012
YMML - Melbourne Intl A, Australia
Distance from Franklin: NNW 631km
Updated: 16/10/2018 03:30
Nearby showers, Partly cloudy
Nearby showers, Partly cloudy
 Wind from N
Wind: N 24 km/h
Temperature: 22°C
Dew Point: 11°C
Humidity: 50%
Barometer: 1013 hPa
Summary: Nearby Showers
Clouds: Partly cloudy
Visibility: 10 km
2018/10/15 16:30 YMML 151630Z 36013KT 9999 VCSH NSC 22/11 Q1013 FM1630 MOD/SEV TURB BLW 5000FT